Terminal Aerodrome Forecast
Issued by NWS

Current Version | Previous Version | Text Only | Print | Product List | Glossary Off
Versions: 1 2 3 4 5 6 7 8 9 10 11 12 13 14 15 16 17 18 19 20 21 22

000
FTUS41 KILN 241100
TAFLCK
TAF
KLCK 241137Z 2412/2512 03007KT P6SM SCT025 BKN040
     FM241500 06008KT P6SM SCT040 BKN150
     FM250100 12007KT P6SM VCSH OVC050
     FM251000 18014G23KT P6SM -SHRA OVC025=

USA.gov is the U.S. government's official web portal to all federal, state and local government web resources and services.